createdAt,value
2017-11-03T00:00:14.489Z,31.40
2017-11-03T00:02:42.708Z,27.93
2017-11-03T00:05:10.160Z,25.53
2017-11-03T00:07:37.599Z,25.33
2017-11-03T00:10:05.031Z,26.97
2017-11-03T00:12:33.270Z,35.43
2017-11-03T00:15:00.712Z,31.87
2017-11-03T00:17:28.151Z,29.10
2017-11-03T00:19:55.630Z,25.53
2017-11-03T00:22:23.078Z,27.37
2017-11-03T00:24:50.531Z,31.20
2017-11-03T00:27:18.012Z,29.70
2017-11-03T00:29:45.484Z,31.57
2017-11-03T00:32:12.928Z,33.40
2017-11-03T00:34:40.367Z,25.40
2017-11-03T00:37:07.817Z,28.93
2017-11-03T00:39:35.287Z,33.30
2017-11-03T00:42:02.751Z,28.53
2017-11-03T00:44:30.194Z,24.43
2017-11-03T00:46:57.667Z,36.93
2017-11-03T00:49:25.126Z,27.30
2017-11-03T00:51:52.581Z,32.10
2017-11-03T00:54:20.022Z,32.07
2017-11-03T00:56:47.474Z,31.93
2017-11-03T00:59:14.931Z,34.40
2017-11-03T01:01:42.354Z,36.07
2017-11-03T01:04:10.579Z,32.83
2017-11-03T01:06:38.014Z,33.77
2017-11-03T01:09:05.456Z,27.87
2017-11-03T01:11:32.893Z,23.20
2017-11-03T01:14:01.137Z,28.97
2017-11-03T01:16:28.578Z,27.57
2017-11-03T01:18:56.014Z,25.30
2017-11-03T01:21:23.458Z,31.73
2017-11-03T01:23:50.902Z,26.20
2017-11-03T01:26:19.138Z,28.00
2017-11-03T01:28:46.593Z,20.70
2017-11-03T01:31:14.031Z,31.50
2017-11-03T01:33:41.501Z,29.50
2017-11-03T01:36:08.946Z,22.93
2017-11-03T01:38:36.455Z,28.50
2017-11-03T01:41:04.838Z,31.77
2017-11-03T01:43:33.058Z,28.00
2017-11-03T01:46:00.510Z,23.60
2017-11-03T01:48:28.094Z,32.90
2017-11-03T01:50:55.558Z,32.57
2017-11-03T01:53:22.998Z,33.27
2017-11-03T01:55:50.458Z,26.77
2017-11-03T01:58:17.925Z,28.20
2017-11-03T02:00:45.380Z,37.87
2017-11-03T02:03:12.815Z,27.03
2017-11-03T02:05:40.263Z,32.43
2017-11-03T02:08:12.567Z,30.10
2017-11-03T02:10:40.030Z,36.17
2017-11-03T02:13:07.478Z,29.60
2017-11-03T02:15:34.902Z,33.10
2017-11-03T02:18:02.386Z,28.90
2017-11-03T02:20:29.838Z,31.00
2017-11-03T02:22:57.286Z,26.93
2017-11-03T02:25:24.735Z,26.77
2017-11-03T02:27:52.182Z,25.53
2017-11-03T02:30:19.623Z,31.03
2017-11-03T02:32:47.113Z,35.73
2017-11-03T02:35:14.595Z,27.73
2017-11-03T02:37:42.030Z,29.97
2017-11-03T02:40:09.490Z,31.63
2017-11-03T02:42:36.943Z,22.47
2017-11-03T02:45:04.402Z,27.97
2017-11-03T02:47:31.882Z,28.20
2017-11-03T02:49:59.428Z,30.97
2017-11-03T02:52:26.895Z,30.57
2017-11-03T02:54:54.370Z,31.20
2017-11-03T02:57:21.798Z,29.97
2017-11-03T02:59:49.244Z,30.40
2017-11-03T03:02:16.722Z,23.77
2017-11-03T03:04:44.185Z,30.90
2017-11-03T03:07:11.636Z,30.03
2017-11-03T03:09:39.454Z,29.20
2017-11-03T03:12:06.901Z,30.53
2017-11-03T03:14:35.109Z,27.53
2017-11-03T03:17:02.571Z,27.03
2017-11-03T03:19:30.053Z,32.10
2017-11-03T03:21:57.489Z,33.37
2017-11-03T03:24:24.944Z,38.67
2017-11-03T03:26:52.395Z,36.23
2017-11-03T03:29:19.870Z,29.57
2017-11-03T03:31:47.315Z,33.60
2017-11-03T03:34:14.774Z,32.63
2017-11-03T03:36:42.230Z,35.03
2017-11-03T03:39:09.714Z,33.07
2017-11-03T03:41:37.163Z,36.10
2017-11-03T03:44:04.605Z,33.23
2017-11-03T03:46:32.058Z,30.13
2017-11-03T03:48:59.490Z,29.10
2017-11-03T03:51:26.983Z,25.23
2017-11-03T03:53:54.430Z,30.70
2017-11-03T03:56:21.886Z,32.90
2017-11-03T03:58:49.325Z,29.63
2017-11-03T04:01:16.860Z,34.13
2017-11-03T04:03:45.096Z,31.80
2017-11-03T04:06:12.534Z,39.80
2017-11-03T04:08:39.986Z,32.87
2017-11-03T04:11:07.426Z,24.83
2017-11-03T04:13:34.913Z,30.03
2017-11-03T04:16:02.383Z,31.70
2017-11-03T04:18:29.850Z,27.60
2017-11-03T04:20:57.314Z,32.67
2017-11-03T04:23:24.747Z,31.23
2017-11-03T04:25:52.190Z,31.80
2017-11-03T04:28:19.633Z,31.40
2017-11-03T04:30:47.119Z,31.07
2017-11-03T04:33:14.582Z,25.70
2017-11-03T04:35:42.070Z,29.63
2017-11-03T04:38:10.281Z,26.33
2017-11-03T04:40:37.721Z,29.37
2017-11-03T04:43:05.161Z,30.13
2017-11-03T04:45:33.380Z,36.67
2017-11-03T04:48:00.861Z,27.90
2017-11-03T04:50:28.311Z,30.10
2017-11-03T04:52:55.865Z,32.07
2017-11-03T04:55:23.315Z,32.57
2017-11-03T04:57:50.783Z,33.77
2017-11-03T05:00:18.251Z,34.23
2017-11-03T05:02:45.706Z,38.00
2017-11-03T05:05:13.173Z,36.97
2017-11-03T05:07:40.611Z,29.90
2017-11-03T05:10:08.056Z,32.47
2017-11-03T05:12:35.498Z,34.03
2017-11-03T05:15:02.951Z,31.73
2017-11-03T05:17:30.398Z,29.20
2017-11-03T05:19:58.727Z,33.77
2017-11-03T05:22:26.168Z,35.80
2017-11-03T05:24:53.613Z,44.10
2017-11-03T05:27:21.071Z,34.43
2017-11-03T05:29:48.507Z,36.13
2017-11-03T05:32:15.960Z,28.20
2017-11-03T05:34:43.403Z,35.30
2017-11-03T05:37:11.621Z,35.93
2017-11-03T05:39:39.063Z,31.30
2017-11-03T05:42:06.649Z,36.33
2017-11-03T05:44:34.098Z,36.63
2017-11-03T05:47:01.545Z,33.37
2017-11-03T05:49:29.025Z,42.87
2017-11-03T05:51:56.467Z,39.23
2017-11-03T05:54:23.948Z,33.47
2017-11-03T05:56:51.497Z,32.27
2017-11-03T05:59:18.950Z,32.83
2017-11-03T06:01:46.411Z,32.93
2017-11-03T06:04:13.856Z,36.17
2017-11-03T06:06:41.335Z,24.73
2017-11-03T06:09:08.775Z,39.47
2017-11-03T06:11:36.223Z,26.90
2017-11-03T06:14:03.653Z,28.17
2017-11-03T06:16:31.862Z,23.03
2017-11-03T06:18:59.303Z,24.50
2017-11-03T06:21:26.773Z,28.73
2017-11-03T06:23:54.223Z,30.77
2017-11-03T06:26:21.707Z,31.67
2017-11-03T06:28:49.171Z,28.70
2017-11-03T06:31:23.510Z,29.27
2017-11-03T06:33:51.857Z,31.50
2017-11-03T06:36:19.299Z,26.13
2017-11-03T06:38:46.751Z,29.90
2017-11-03T06:41:14.178Z,26.80
2017-11-03T06:43:41.772Z,30.30
2017-11-03T06:46:09.194Z,29.73
2017-11-03T06:48:37.402Z,28.00
2017-11-03T06:51:04.846Z,21.40
2017-11-03T06:53:32.345Z,29.20
2017-11-03T06:55:59.794Z,35.57
2017-11-03T06:58:27.227Z,22.33
2017-11-03T07:00:54.684Z,27.73
2017-11-03T07:03:22.128Z,26.57
2017-11-03T07:05:49.623Z,23.40
2017-11-03T07:08:17.062Z,25.53
2017-11-03T07:10:44.493Z,27.80
2017-11-03T07:13:11.946Z,29.23
2017-11-03T07:15:39.387Z,23.43
2017-11-03T07:18:07.606Z,21.80
2017-11-03T07:20:35.042Z,21.30
2017-11-03T07:23:02.487Z,29.70
2017-11-03T07:25:30.694Z,24.90
2017-11-03T07:27:58.162Z,27.77
2017-11-03T07:30:25.624Z,28.47
2017-11-03T07:32:53.059Z,31.40
2017-11-03T07:35:20.498Z,26.30
2017-11-03T07:37:47.990Z,29.87
2017-11-03T07:40:15.439Z,30.20
2017-11-03T07:42:42.880Z,31.27
2017-11-03T07:45:10.335Z,38.17
2017-11-03T07:47:37.763Z,31.63
2017-11-03T07:50:05.990Z,23.30
2017-11-03T07:52:33.458Z,30.10
2017-11-03T07:55:00.907Z,29.40
2017-11-03T07:57:28.369Z,27.07
2017-11-03T07:59:55.812Z,37.73
2017-11-03T08:02:23.263Z,27.50
2017-11-03T08:04:50.690Z,27.80
2017-11-03T08:07:19.016Z,24.80
2017-11-03T08:09:46.448Z,27.90
2017-11-03T08:12:13.931Z,25.20
2017-11-03T08:14:41.487Z,35.93
2017-11-03T08:17:08.920Z,28.47
2017-11-03T08:19:36.390Z,38.77
2017-11-03T08:22:03.866Z,25.03
2017-11-03T08:24:31.294Z,30.17
2017-11-03T08:26:58.738Z,25.00
2017-11-03T08:29:26.241Z,33.73
2017-11-03T08:31:53.695Z,30.60
2017-11-03T08:34:21.162Z,28.40
2017-11-03T08:36:48.625Z,22.40
2017-11-03T08:39:16.071Z,22.63
2017-11-03T08:41:43.519Z,23.77
2017-11-03T08:44:10.977Z,28.00
2017-11-03T08:46:38.420Z,23.27
2017-11-03T08:49:05.873Z,27.73
2017-11-03T08:51:33.307Z,29.93
2017-11-03T08:54:00.750Z,30.27
2017-11-03T08:56:28.981Z,22.10
2017-11-03T08:58:56.442Z,32.17
2017-11-03T09:01:23.878Z,22.43
2017-11-03T09:03:51.310Z,31.87
2017-11-03T09:06:18.762Z,25.37
2017-11-03T09:08:46.972Z,26.93
2017-11-03T09:11:14.442Z,26.87
2017-11-03T09:13:41.886Z,31.20
2017-11-03T09:16:09.362Z,23.30
2017-11-03T09:18:36.816Z,22.13
2017-11-03T09:21:04.261Z,26.30
2017-11-03T09:23:31.720Z,27.70
2017-11-03T09:25:59.167Z,26.83
2017-11-03T09:28:26.623Z,27.67
2017-11-03T09:30:54.069Z,27.43
2017-11-03T09:33:21.550Z,22.13
2017-11-03T09:35:49.927Z,24.20
2017-11-03T09:38:17.387Z,26.63
2017-11-03T09:40:44.834Z,25.70
2017-11-03T09:43:12.281Z,20.60
2017-11-03T09:45:39.740Z,24.17
2017-11-03T09:48:07.214Z,26.87
2017-11-03T09:50:34.676Z,32.60
2017-11-03T09:53:02.133Z,30.87
2017-11-03T09:55:29.574Z,27.53
2017-11-03T09:57:57.030Z,27.43
2017-11-03T10:00:24.471Z,30.37
2017-11-03T10:02:51.924Z,27.27
2017-11-03T10:05:19.372Z,30.80
2017-11-03T10:07:47.579Z,30.77
2017-11-03T10:10:15.055Z,24.93
2017-11-03T10:12:42.510Z,31.03
2017-11-03T10:15:09.970Z,25.40
2017-11-03T10:17:37.406Z,32.30
2017-11-03T10:20:04.858Z,32.43
2017-11-03T10:22:32.339Z,30.67
2017-11-03T10:24:59.792Z,29.90
2017-11-03T10:27:27.266Z,29.50
2017-11-03T10:29:54.819Z,29.50
2017-11-03T10:32:22.271Z,31.10
2017-11-03T10:34:49.723Z,27.77
2017-11-03T10:37:17.166Z,34.20
2017-11-03T10:39:44.642Z,27.73
2017-11-03T10:42:12.090Z,29.50
2017-11-03T10:44:39.539Z,29.73
2017-11-03T10:47:07.012Z,26.53
2017-11-03T10:49:34.451Z,29.30
2017-11-03T10:52:01.919Z,28.53
2017-11-03T10:54:29.366Z,25.50
2017-11-03T10:56:56.805Z,24.40
2017-11-03T10:59:24.275Z,33.73
2017-11-03T11:01:51.723Z,29.43
2017-11-03T11:04:19.174Z,24.37
2017-11-03T11:06:46.624Z,33.53
2017-11-03T11:09:14.104Z,26.43
2017-11-03T11:11:41.546Z,26.53
2017-11-03T11:14:08.993Z,26.33
2017-11-03T11:16:36.447Z,29.47
2017-11-03T11:19:03.887Z,25.70
2017-11-03T11:21:31.418Z,23.07
2017-11-03T11:23:58.872Z,24.70
2017-11-03T11:26:26.342Z,25.20
2017-11-03T11:28:53.897Z,26.03
2017-11-03T11:31:21.351Z,22.47
2017-11-03T11:33:48.816Z,19.90
2017-11-03T11:36:16.263Z,19.00
2017-11-03T11:38:43.729Z,20.13
2017-11-03T11:41:11.195Z,21.47
2017-11-03T11:43:38.735Z,22.73
2017-11-03T11:46:06.195Z,20.53
2017-11-03T11:48:33.648Z,24.07
2017-11-03T11:51:01.318Z,19.80
2017-11-03T11:53:28.870Z,17.43
2017-11-03T11:55:56.339Z,16.80
2017-11-03T11:58:23.787Z,13.20
2017-11-03T12:00:51.226Z,15.80
2017-11-03T12:03:18.682Z,23.43
2017-11-03T12:05:46.136Z,16.10
2017-11-03T12:08:13.621Z,16.13
2017-11-03T12:10:41.074Z,18.00
2017-11-03T12:13:08.517Z,18.63
2017-11-03T12:15:35.967Z,17.10
2017-11-03T12:18:03.424Z,15.60
2017-11-03T12:20:31.002Z,14.77
2017-11-03T12:22:58.460Z,15.00
2017-11-03T12:25:25.903Z,13.60
2017-11-03T12:27:53.370Z,17.70
2017-11-03T12:30:20.822Z,13.37
2017-11-03T12:32:48.287Z,14.10
2017-11-03T12:35:15.744Z,15.57
2017-11-03T12:37:43.195Z,21.50
2017-11-03T12:40:10.658Z,22.40
2017-11-03T12:42:38.107Z,18.70
2017-11-03T12:45:05.573Z,24.23
2017-11-03T12:47:33.033Z,15.60
2017-11-03T12:50:00.487Z,19.73
2017-11-03T12:52:28.046Z,24.80
2017-11-03T12:54:55.493Z,21.60
2017-11-03T12:57:22.963Z,20.70
2017-11-03T12:59:50.420Z,25.03
2017-11-03T13:02:17.875Z,24.40
2017-11-03T13:04:45.318Z,21.60
2017-11-03T13:07:12.802Z,24.60
2017-11-03T13:09:40.351Z,26.13
2017-11-03T13:12:07.798Z,23.77
2017-11-03T13:14:35.265Z,22.70
2017-11-03T13:17:02.727Z,28.93
2017-11-03T13:19:30.293Z,24.13
2017-11-03T13:21:57.732Z,26.37
2017-11-03T13:24:25.196Z,30.97
2017-11-03T13:26:52.644Z,21.90
2017-11-03T13:29:20.075Z,26.47
2017-11-03T13:31:47.525Z,26.27
2017-11-03T13:34:15.027Z,24.50
2017-11-03T13:36:42.582Z,24.53
2017-11-03T13:39:10.023Z,25.97
2017-11-03T13:41:37.494Z,27.03
2017-11-03T13:44:04.964Z,30.37
2017-11-03T13:46:32.415Z,22.10
2017-11-03T13:48:59.867Z,29.53
2017-11-03T13:51:27.327Z,28.70
2017-11-03T13:53:54.890Z,19.07
2017-11-03T13:56:22.350Z,26.43
2017-11-03T13:58:49.834Z,17.83
2017-11-03T14:01:18.084Z,27.20
2017-11-03T14:03:45.535Z,23.10
2017-11-03T14:06:13.002Z,29.20
2017-11-03T14:08:40.451Z,36.43
2017-11-03T14:11:07.905Z,29.07
2017-11-03T14:13:35.467Z,28.10
2017-11-03T14:16:03.027Z,30.13
2017-11-03T14:18:30.482Z,34.03
2017-11-03T14:20:57.950Z,23.60
2017-11-03T14:23:25.410Z,29.13
2017-11-03T14:25:52.854Z,21.23
2017-11-03T14:28:20.311Z,28.77
2017-11-03T14:30:47.768Z,26.80
2017-11-03T14:33:15.244Z,27.43
2017-11-03T14:35:42.695Z,27.90
2017-11-03T14:38:10.147Z,25.40
2017-11-03T14:40:37.595Z,24.80
2017-11-03T14:43:05.067Z,20.20
2017-11-03T14:45:32.523Z,19.30
2017-11-03T14:47:59.972Z,28.80
2017-11-03T14:50:27.455Z,24.60
2017-11-03T14:52:55.659Z,23.57
2017-11-03T14:55:23.116Z,23.40
2017-11-03T14:57:50.569Z,28.33
2017-11-03T15:00:18.071Z,26.80
2017-11-03T15:02:45.531Z,20.87
2017-11-03T15:05:12.975Z,27.37
2017-11-03T15:07:40.447Z,28.20
2017-11-03T15:10:07.907Z,24.37
2017-11-03T15:12:35.342Z,29.73
2017-11-03T15:15:02.799Z,24.57
2017-11-03T15:17:30.250Z,23.17
2017-11-03T15:19:57.738Z,19.60
2017-11-03T15:22:25.193Z,18.57
2017-11-03T15:24:52.662Z,24.17
2017-11-03T15:27:20.108Z,21.60
2017-11-03T15:29:47.559Z,21.00
2017-11-03T15:32:15.047Z,23.67
2017-11-03T15:34:42.487Z,21.40
2017-11-03T15:37:10.039Z,26.50
2017-11-03T15:39:37.484Z,21.83
2017-11-03T15:42:04.946Z,18.17
2017-11-03T15:44:32.408Z,16.87
2017-11-03T15:46:59.879Z,23.00
2017-11-03T15:49:27.335Z,18.47
2017-11-03T15:51:55.553Z,22.90
2017-11-03T15:54:22.986Z,20.27
2017-11-03T15:56:51.232Z,20.00
2017-11-03T15:59:18.682Z,22.83
2017-11-03T16:01:46.243Z,22.10
2017-11-03T16:04:13.706Z,27.40
2017-11-03T16:06:41.155Z,21.10
2017-11-03T16:09:08.636Z,24.40
2017-11-03T16:11:37.635Z,27.57
2017-11-03T16:14:05.843Z,20.63
2017-11-03T16:16:33.299Z,19.00
2017-11-03T16:19:00.738Z,27.40
2017-11-03T16:21:28.972Z,21.07
2017-11-03T16:23:56.537Z,22.70
2017-11-03T16:26:23.987Z,19.23
2017-11-03T16:28:51.503Z,24.67
2017-11-03T16:31:19.016Z,23.07
2017-11-03T16:33:46.490Z,20.20
2017-11-03T16:36:14.703Z,22.40
2017-11-03T16:38:42.195Z,25.10
2017-11-03T16:41:09.659Z,22.60
2017-11-03T16:43:37.111Z,18.10
2017-11-03T16:46:04.553Z,26.03
2017-11-03T16:48:32.013Z,17.50
2017-11-03T16:50:59.563Z,23.80
2017-11-03T16:53:26.987Z,22.67
2017-11-03T16:55:54.421Z,20.67
2017-11-03T16:58:21.882Z,33.13
2017-11-03T17:00:49.324Z,29.33
2017-11-03T17:03:16.783Z,20.63
2017-11-03T17:05:44.232Z,25.57
2017-11-03T17:08:11.689Z,33.60
2017-11-03T17:10:39.138Z,27.83
2017-11-03T17:13:06.598Z,26.47
2017-11-03T17:15:34.088Z,31.03
2017-11-03T17:18:02.399Z,28.63
2017-11-03T17:20:29.852Z,26.20
2017-11-03T17:22:57.306Z,25.50
2017-11-03T17:25:24.758Z,26.47
2017-11-03T17:27:52.208Z,22.87
2017-11-03T17:30:20.414Z,21.30
2017-11-03T17:32:47.895Z,25.43
2017-11-03T17:35:15.352Z,23.67
2017-11-03T17:37:42.793Z,22.70
2017-11-03T17:40:10.252Z,26.30
2017-11-03T17:42:37.711Z,27.60
2017-11-03T17:45:05.155Z,24.73
2017-11-03T17:47:32.595Z,24.33
2017-11-03T17:50:00.066Z,27.77
2017-11-03T17:52:27.507Z,26.23
2017-11-03T17:54:54.955Z,32.17
2017-11-03T17:57:22.417Z,25.23
2017-11-03T17:59:49.856Z,26.60
2017-11-03T18:02:18.083Z,25.73
2017-11-03T18:04:45.531Z,27.30
2017-11-03T18:07:12.998Z,30.37
2017-11-03T18:09:40.447Z,28.40
2017-11-03T18:12:07.901Z,26.60
2017-11-03T18:14:35.368Z,26.13
2017-11-03T18:17:02.820Z,27.80
2017-11-03T18:19:30.276Z,28.27
2017-11-03T18:21:57.731Z,29.63
2017-11-03T18:24:25.207Z,20.37
2017-11-03T18:26:52.659Z,35.57
2017-11-03T18:29:20.112Z,27.37
2017-11-03T18:31:47.572Z,23.83
2017-11-03T18:34:15.024Z,22.50
2017-11-03T18:36:42.474Z,37.27
2017-11-03T18:39:09.917Z,33.63
2017-11-03T18:41:37.390Z,35.73
2017-11-03T18:44:04.830Z,30.10
2017-11-03T18:46:32.268Z,28.27
2017-11-03T18:49:00.491Z,33.57
2017-11-03T18:51:27.945Z,28.57
2017-11-03T18:53:55.401Z,36.30
2017-11-03T18:56:22.847Z,27.00
2017-11-03T18:58:50.329Z,35.63
2017-11-03T19:01:17.766Z,25.50
2017-11-03T19:03:45.220Z,25.10
2017-11-03T19:06:12.678Z,38.43
2017-11-03T19:08:40.133Z,26.97
2017-11-03T19:11:07.595Z,29.47
2017-11-03T19:13:35.047Z,28.67
2017-11-03T19:16:02.518Z,33.33
2017-11-03T19:18:29.947Z,30.73
2017-11-03T19:20:57.394Z,23.47
2017-11-03T19:23:24.851Z,28.27
2017-11-03T19:25:52.291Z,23.90
2017-11-03T19:28:20.515Z,29.80
2017-11-03T19:30:47.970Z,26.73
2017-11-03T19:33:15.443Z,28.17
2017-11-03T19:35:43.655Z,28.70
2017-11-03T19:38:11.865Z,28.40
2017-11-03T19:40:39.324Z,22.73
2017-11-03T19:43:06.780Z,28.63
2017-11-03T19:45:34.238Z,58.40
2017-11-03T19:48:01.683Z,107.13
2017-11-03T19:50:29.192Z,70.47
2017-11-03T19:52:56.643Z,56.57
2017-11-03T19:55:24.095Z,36.53
2017-11-03T19:57:51.547Z,33.73
2017-11-03T20:00:18.991Z,36.13
2017-11-03T20:02:46.579Z,34.00
2017-11-03T20:05:14.023Z,33.80
2017-11-03T20:07:41.525Z,34.67
2017-11-03T20:10:09.736Z,30.13
2017-11-03T20:12:37.182Z,30.93
2017-11-03T20:15:04.648Z,31.17
2017-11-03T20:17:32.089Z,35.80
2017-11-03T20:19:59.534Z,31.73
2017-11-03T20:22:27.750Z,30.40
2017-11-03T20:24:55.220Z,29.00
2017-11-03T20:27:22.679Z,31.33
2017-11-03T20:29:50.135Z,50.07
2017-11-03T20:32:17.592Z,32.50
2017-11-03T20:34:45.036Z,38.47
2017-11-03T20:37:12.486Z,29.10
2017-11-03T20:39:39.931Z,41.60
2017-11-03T20:42:07.377Z,40.87
2017-11-03T20:44:34.818Z,25.73
2017-11-03T20:47:03.059Z,29.43
2017-11-03T20:49:30.509Z,28.23
2017-11-03T20:51:57.942Z,35.97
2017-11-03T20:54:25.398Z,29.93
2017-11-03T20:56:52.849Z,29.10
2017-11-03T20:59:20.299Z,33.70
2017-11-03T21:01:47.736Z,32.00
2017-11-03T21:04:15.966Z,30.43
2017-11-03T21:06:43.414Z,29.93
2017-11-03T21:09:10.888Z,30.93
2017-11-03T21:11:38.338Z,33.23
2017-11-03T21:14:05.770Z,34.63
2017-11-03T21:16:33.232Z,35.83
2017-11-03T21:19:00.675Z,29.53
2017-11-03T21:21:28.142Z,35.47
2017-11-03T21:23:55.594Z,30.10
2017-11-03T21:26:23.056Z,28.40
2017-11-03T21:28:50.499Z,27.53
2017-11-03T21:31:17.970Z,29.87
2017-11-03T21:33:45.415Z,31.03
2017-11-03T21:36:12.851Z,31.23
2017-11-03T21:38:41.069Z,27.60
2017-11-03T21:41:08.524Z,27.03
2017-11-03T21:43:36.007Z,31.53
2017-11-03T21:46:03.449Z,29.00
2017-11-03T21:48:30.909Z,23.03
2017-11-03T21:50:58.347Z,27.47
2017-11-03T21:53:25.800Z,29.20
2017-11-03T21:55:53.238Z,32.73
2017-11-03T21:58:20.679Z,28.83
2017-11-03T22:00:48.903Z,31.70
2017-11-03T22:03:16.362Z,24.70
2017-11-03T22:05:43.938Z,23.60
2017-11-03T22:08:11.368Z,25.93
2017-11-03T22:10:38.828Z,43.50
2017-11-03T22:13:06.294Z,69.43
2017-11-03T22:15:33.740Z,70.40
2017-11-03T22:18:01.215Z,62.00
2017-11-03T22:20:28.659Z,41.23
2017-11-03T22:22:56.108Z,30.40
2017-11-03T22:25:23.587Z,30.83
2017-11-03T22:27:51.046Z,26.73
2017-11-03T22:30:18.512Z,32.23
2017-11-03T22:32:45.955Z,29.37
2017-11-03T22:35:13.398Z,33.33
2017-11-03T22:37:40.855Z,28.83
2017-11-03T22:40:08.304Z,22.17
2017-11-03T22:42:35.765Z,21.97
2017-11-03T22:45:03.217Z,18.67
2017-11-03T22:47:30.699Z,20.93
2017-11-03T22:49:58.158Z,21.53
2017-11-03T22:52:25.597Z,23.27
2017-11-03T22:54:53.057Z,22.03
2017-11-03T22:57:20.508Z,25.87
2017-11-03T22:59:47.974Z,25.17
2017-11-03T23:02:15.420Z,19.57
2017-11-03T23:04:42.869Z,23.63
2017-11-03T23:07:10.314Z,22.73
2017-11-03T23:09:37.760Z,27.70
2017-11-03T23:12:05.971Z,24.17
2017-11-03T23:14:33.419Z,26.60
2017-11-03T23:17:00.880Z,22.43
2017-11-03T23:19:28.333Z,23.70
2017-11-03T23:21:56.701Z,23.03
2017-11-03T23:24:24.158Z,20.93
2017-11-03T23:26:51.601Z,20.83
2017-11-03T23:29:19.836Z,23.70
2017-11-03T23:31:47.286Z,19.67
2017-11-03T23:34:14.719Z,27.47
2017-11-03T23:36:42.171Z,25.40
2017-11-03T23:39:09.603Z,24.47
2017-11-03T23:41:37.874Z,21.67
2017-11-03T23:44:06.088Z,19.40
2017-11-03T23:46:33.537Z,16.50
2017-11-03T23:49:00.974Z,19.23
2017-11-03T23:51:28.424Z,14.20
2017-11-03T23:53:56.631Z,16.60
2017-11-03T23:56:24.082Z,18.43
2017-11-03T23:58:51.548Z,14.87
